Time;durP1;ratioP1;P1;durP2;ratioP2;P2;SDS_P1;SDS_P2;PMS_P1;PMS_P2;Temp;Humidity;BMP_temperature;BMP_pressure;BME280_temperature;BME280_humidity;BME280_pressure;Samples;Min_cycle;Max_cycle;Signal;HPM_P1;HPM_P2
2021/01/12 00:02:22;;;;;;;22.08;11.57;;;4.60;55.10;;;;;;5018146;28;20018;-58
2021/01/12 00:04:48;;;;;;;20.42;12.23;;;4.60;55.10;;;;;;5025181;28;20482;-58
2021/01/12 00:07:18;;;;;;;17.83;9.95;;;4.60;55.00;;;;;;5014953;28;20018;-59
2021/01/12 00:09:43;;;;;;;17.98;11.05;;;4.60;55.00;;;;;;5019975;28;20025;-59
2021/01/12 00:12:09;;;;;;;18.27;10.57;;;4.60;55.10;;;;;;5020359;28;20033;-57
2021/01/12 00:14:35;;;;;;;17.67;11.20;;;4.60;55.10;;;;;;5027548;28;20409;-59
2021/01/12 00:17:07;;;;;;;18.50;11.20;;;4.60;55.70;;;;;;5025658;28;20030;-57
2021/01/12 00:19:34;;;;;;;18.75;12.13;;;4.60;55.10;;;;;;5028829;28;20057;-59
2021/01/12 00:22:01;;;;;;;22.88;13.23;;;4.60;55.10;;;;;;5024550;28;20029;-57
2021/01/12 00:24:27;;;;;;;18.13;11.95;;;4.60;55.10;;;;;;5030679;28;20105;-56
2021/01/12 00:26:53;;;;;;;22.33;13.77;;;4.60;55.10;;;;;;5022721;28;20048;-59
2021/01/12 00:29:19;;;;;;;22.20;13.20;;;4.60;54.90;;;;;;5032637;28;20072;-57
2021/01/12 00:31:46;;;;;;;21.38;13.07;;;4.60;54.80;;;;;;5027707;28;20026;-58
2021/01/12 00:34:13;;;;;;;20.33;12.98;;;4.50;54.60;;;;;;5033384;28;20025;-60
2021/01/12 00:36:50;;;;;;;17.23;11.13;;;4.60;54.60;;;;;;5032779;28;20021;-59
2021/01/12 00:39:21;;;;;;;16.40;10.10;;;4.60;54.40;;;;;;5033077;28;20472;-60
2021/01/12 00:41:55;;;;;;;14.98;9.70;;;4.50;54.30;;;;;;5032420;28;20163;-59
2021/01/12 00:44:21;;;;;;;15.55;10.10;;;4.50;54.10;;;;;;5033518;28;20057;-59
2021/01/12 00:46:48;;;;;;;15.75;9.73;;;4.50;54.20;;;;;;5028251;28;20030;-60
2021/01/12 00:49:15;;;;;;;14.50;9.05;;;4.50;54.30;;;;;;5013482;28;20033;-59
2021/01/12 00:51:41;;;;;;;15.98;9.93;;;4.50;54.00;;;;;;5013349;28;20038;-60
2021/01/12 00:54:09;;;;;;;13.90;9.63;;;4.50;54.10;;;;;;4998378;28;20037;-59
2021/01/12 00:56:35;;;;;;;14.23;9.52;;;4.50;54.00;;;;;;4993461;28;20057;-60
2021/01/12 00:59:01;;;;;;;14.07;8.77;;;4.50;53.90;;;;;;4992218;28;20092;-59
2021/01/12 01:01:27;;;;;;;14.77;9.02;;;4.50;54.00;;;;;;4994190;28;20023;-60
2021/01/12 01:03:53;;;;;;;16.85;9.30;;;4.50;54.10;;;;;;4993945;28;20073;-58
2021/01/12 01:06:20;;;;;;;15.30;10.13;;;4.50;54.00;;;;;;4992465;28;20536;-60
2021/01/12 01:08:46;;;;;;;16.00;9.82;;;4.50;54.00;;;;;;5001213;28;20450;-59
2021/01/12 01:11:12;;;;;;;15.18;9.68;;;4.50;53.90;;;;;;4999200;28;20030;-59
2021/01/12 01:13:38;;;;;;;19.52;11.10;;;4.50;53.90;;;;;;5013277;28;20526;-59
2021/01/12 01:16:04;;;;;;;17.30;11.02;;;4.50;54.10;;;;;;5012603;28;20490;-57
2021/01/12 01:18:30;;;;;;;15.35;9.85;;;4.50;54.00;;;;;;4993745;28;20030;-59
2021/01/12 01:20:55;;;;;;;18.48;10.75;;;4.50;53.90;;;;;;4993651;28;20022;-60
2021/01/12 01:23:21;;;;;;;13.52;8.75;;;4.50;54.10;;;;;;4995647;28;20023;-60
2021/01/12 01:25:47;;;;;;;16.20;9.43;;;4.50;53.90;;;;;;4993541;28;20065;-60
2021/01/12 01:28:12;;;;;;;16.40;10.05;;;4.50;53.90;;;;;;5000985;28;20050;-60
2021/01/12 01:30:38;;;;;;;17.42;9.73;;;4.50;53.90;;;;;;4993875;28;20080;-59
2021/01/12 01:33:04;;;;;;;12.93;9.02;;;4.50;53.80;;;;;;5013110;28;20018;-60
2021/01/12 01:35:30;;;;;;;13.98;7.93;;;4.50;53.80;;;;;;4999103;28;20032;-59
2021/01/12 01:37:55;;;;;;;13.50;8.93;;;4.50;53.90;;;;;;4999168;28;20061;-58
2021/01/12 01:40:22;;;;;;;15.90;9.13;;;4.40;53.70;;;;;;5003884;28;20117;-60
2021/01/12 01:42:48;;;;;;;14.95;8.02;;;4.40;53.90;;;;;;5005493;28;20650;-59
2021/01/12 01:45:15;;;;;;;16.95;9.38;;;4.40;54.00;;;;;;5010403;28;20148;-58
2021/01/12 01:47:45;;;;;;;12.57;8.73;;;4.40;54.00;;;;;;5007645;28;20021;-59
2021/01/12 01:50:16;;;;;;;12.98;8.07;;;4.40;54.10;;;;;;5011867;28;20029;-60
2021/01/12 01:52:49;;;;;;;11.27;7.67;;;4.40;54.10;;;;;;5012334;28;20033;-60
2021/01/12 01:55:15;;;;;;;11.95;7.30;;;4.40;54.10;;;;;;5000046;28;20105;-56
2021/01/12 01:57:41;;;;;;;13.32;7.88;;;4.40;54.30;;;;;;5012335;28;20414;-60
2021/01/12 02:00:08;;;;;;;13.95;7.88;;;4.40;54.40;;;;;;5012124;28;20064;-59
2021/01/12 02:02:49;;;;;;;8.48;5.55;;;4.40;54.50;;;;;;5002366;28;20019;-60
2021/01/12 02:05:15;;;;;;;8.17;5.20;;;4.40;53.80;;;;;;4992975;28;20030;-60
2021/01/12 02:07:44;;;;;;;10.20;5.82;;;4.40;53.90;;;;;;4998723;28;20046;-58
2021/01/12 02:10:13;;;;;;;9.40;5.95;;;4.40;53.60;;;;;;5012841;28;20018;-59
2021/01/12 02:12:46;;;;;;;10.18;6.78;;;4.40;53.50;;;;;;5015940;28;20026;-60
2021/01/12 02:15:18;;;;;;;8.77;6.05;;;4.40;53.40;;;;;;5016107;28;20073;-58
2021/01/12 02:17:45;;;;;;;8.65;5.45;;;4.50;53.40;;;;;;5015644;28;20464;-58
2021/01/12 02:20:13;;;;;;;7.55;5.30;;;4.40;53.20;;;;;;5016075;28;20350;-59
2021/01/12 02:22:45;;;;;;;8.70;5.32;;;4.50;53.20;;;;;;5015912;28;20466;-60
2021/01/12 02:25:13;;;;;;;11.15;6.70;;;4.50;53.10;;;;;;5015441;28;20026;-59
2021/01/12 02:27:39;;;;;;;10.13;5.88;;;4.50;53.10;;;;;;5003617;28;20038;-60
2021/01/12 02:30:06;;;;;;;9.82;6.38;;;4.40;53.00;;;;;;5015534;28;20028;-60
2021/01/12 02:32:32;;;;;;;10.80;6.85;;;4.40;52.90;;;;;;5015327;28;20072;-60
2021/01/12 02:35:00;;;;;;;10.65;6.63;;;4.40;52.90;;;;;;5015696;28;20030;-59
2021/01/12 02:37:26;;;;;;;11.23;6.95;;;4.40;53.00;;;;;;5014961;28;20038;-60
2021/01/12 02:39:59;;;;;;;12.02;7.10;;;4.40;53.00;;;;;;5015556;28;20088;-59
2021/01/12 02:42:25;;;;;;;9.48;6.40;;;4.50;53.20;;;;;;5008388;28;20494;-58
2021/01/12 02:44:51;;;;;;;11.52;6.47;;;4.50;53.30;;;;;;5009170;28;20076;-59
2021/01/12 02:47:17;;;;;;;12.35;8.10;;;4.50;53.30;;;;;;5002845;28;20018;-59
2021/01/12 02:49:43;;;;;;;10.82;7.30;;;4.50;53.50;;;;;;5009154;28;20037;-60
2021/01/12 02:52:13;;;;;;;14.82;8.77;;;4.40;53.40;;;;;;5015807;28;20034;-60
2021/01/12 02:54:41;;;;;;;11.43;7.50;;;4.40;53.60;;;;;;5015499;28;20033;-59
2021/01/12 02:57:08;;;;;;;9.20;6.97;;;4.40;53.70;;;;;;5009964;28;20160;-60
2021/01/12 02:59:34;;;;;;;11.98;8.07;;;4.50;53.90;;;;;;5008301;28;20030;-60
2021/01/12 03:02:00;;;;;;;12.07;8.07;;;4.40;53.80;;;;;;5006285;28;20054;-59
2021/01/12 03:04:25;;;;;;;11.63;7.53;;;4.40;54.00;;;;;;4995948;28;20018;-57
2021/01/12 03:06:51;;;;;;;13.10;8.13;;;4.40;54.00;;;;;;4998794;28;20111;-60
2021/01/12 03:09:17;;;;;;;12.00;8.35;;;4.40;54.10;;;;;;5001661;28;20033;-60
2021/01/12 03:11:42;;;;;;;12.27;7.97;;;4.40;54.10;;;;;;5015152;28;20076;-59
2021/01/12 03:14:08;;;;;;;15.07;9.73;;;4.40;54.00;;;;;;5015007;28;20336;-61
2021/01/12 03:16:34;;;;;;;11.55;7.78;;;4.40;54.30;;;;;;5015294;28;20045;-60
2021/01/12 03:19:03;;;;;;;12.63;7.28;;;4.40;54.10;;;;;;5001977;28;20061;-59
2021/01/12 03:21:29;;;;;;;11.65;7.22;;;4.40;54.10;;;;;;5013736;28;20389;-60
2021/01/12 03:23:54;;;;;;;11.70;7.32;;;4.40;53.90;;;;;;5008395;28;20032;-58
2021/01/12 03:26:23;;;;;;;8.68;6.25;;;4.40;53.80;;;;;;5014507;28;20054;-59
2021/01/12 03:28:49;;;;;;;10.63;7.47;;;4.40;53.90;;;;;;5014740;28;20054;-59
2021/01/12 03:31:15;;;;;;;9.13;5.97;;;4.40;53.80;;;;;;5015541;28;20477;-60
2021/01/12 03:33:41;;;;;;;10.85;6.90;;;4.40;53.70;;;;;;5014357;28;20378;-60
2021/01/12 03:36:07;;;;;;;9.10;6.40;;;4.40;53.70;;;;;;5014535;28;20030;-60
2021/01/12 03:38:33;;;;;;;8.68;6.88;;;4.40;53.90;;;;;;5013491;28;20044;-59
2021/01/12 03:40:59;;;;;;;10.27;7.10;;;4.40;53.90;;;;;;5014548;28;20022;-59
2021/01/12 03:43:25;;;;;;;9.77;6.68;;;4.40;53.90;;;;;;5013729;28;20174;-60
2021/01/12 03:45:51;;;;;;;11.30;7.93;;;4.40;54.00;;;;;;5014313;28;20033;-58
2021/01/12 03:48:17;;;;;;;11.88;7.88;;;4.40;54.10;;;;;;5013754;28;20056;-59
2021/01/12 03:50:43;;;;;;;11.38;7.50;;;4.30;54.10;;;;;;5014955;28;20057;-59
2021/01/12 03:53:08;;;;;;;11.85;7.25;;;4.30;54.10;;;;;;5014329;28;20105;-59
2021/01/12 03:55:34;;;;;;;12.70;7.45;;;4.30;54.10;;;;;;5013489;28;20514;-59
2021/01/12 03:58:00;;;;;;;12.85;8.75;;;4.30;54.20;;;;;;5013728;28;20026;-59
2021/01/12 04:00:25;;;;;;;11.15;8.07;;;4.30;54.30;;;;;;5014975;28;20028;-59
2021/01/12 04:02:51;;;;;;;11.75;8.63;;;4.30;54.50;;;;;;5018301;28;20110;-59
2021/01/12 04:05:18;;;;;;;13.48;8.82;;;4.30;54.30;;;;;;5003974;28;20026;-60
2021/01/12 04:07:44;;;;;;;12.95;8.20;;;4.30;54.40;;;;;;4994700;28;20026;-58
2021/01/12 04:10:11;;;;;;;12.98;9.00;;;4.20;54.40;;;;;;5009707;28;20022;-58
2021/01/12 04:12:36;;;;;;;13.93;8.27;;;4.20;54.50;;;;;;5010823;28;20041;-58
2021/01/12 04:15:04;;;;;;;12.82;8.48;;;4.20;54.40;;;;;;5006845;28;20022;-60
2021/01/12 04:17:29;;;;;;;12.02;8.50;;;4.20;54.40;;;;;;4999276;28;20022;-59
2021/01/12 04:19:55;;;;;;;12.93;8.02;;;4.20;54.40;;;;;;5013851;28;20034;-59
2021/01/12 04:22:21;;;;;;;12.88;8.50;;;4.20;54.30;;;;;;5013644;28;20072;-60
2021/01/12 04:24:48;;;;;;;13.70;8.60;;;4.20;54.30;;;;;;5008642;28;20034;-58
2021/01/12 04:27:14;;;;;;;12.07;7.85;;;4.30;54.20;;;;;;5008390;28;20381;-60
2021/01/12 04:29:40;;;;;;;12.23;8.02;;;4.20;54.30;;;;;;4999625;28;20034;-58
2021/01/12 04:32:05;;;;;;;14.93;7.93;;;4.20;54.20;;;;;;5010758;28;20026;-59
2021/01/12 04:34:31;;;;;;;10.93;7.97;;;4.20;54.30;;;;;;5007761;28;20030;-60
2021/01/12 04:36:57;;;;;;;12.02;7.47;;;4.20;54.30;;;;;;5006283;28;20026;-59
2021/01/12 04:39:23;;;;;;;10.63;6.75;;;4.20;54.10;;;;;;5005028;28;20034;-59
2021/01/12 04:41:48;;;;;;;11.95;7.07;;;4.20;54.10;;;;;;5011361;28;20025;-59
2021/01/12 04:44:14;;;;;;;9.98;7.10;;;4.20;53.90;;;;;;4999750;28;20529;-59
2021/01/12 04:46:40;;;;;;;9.52;6.63;;;4.20;53.90;;;;;;4999843;28;20370;-60
2021/01/12 04:49:05;;;;;;;12.18;7.32;;;4.20;54.00;;;;;;5008259;28;20029;-59
2021/01/12 04:51:31;;;;;;;13.30;8.00;;;4.20;54.10;;;;;;5005371;28;20529;-59
2021/01/12 04:53:57;;;;;;;15.10;8.88;;;4.20;54.00;;;;;;5001630;28;20030;-60
2021/01/12 04:56:23;;;;;;;14.57;8.73;;;4.20;54.20;;;;;;5012302;28;20474;-59
2021/01/12 04:58:51;;;;;;;11.07;7.53;;;4.20;54.00;;;;;;5006635;28;20042;-59
2021/01/12 05:01:19;;;;;;;11.73;8.55;;;4.20;53.80;;;;;;5004121;28;20029;-58
2021/01/12 05:03:52;;;;;;;11.85;7.40;;;4.20;53.70;;;;;;5004102;28;20463;-59
2021/01/12 05:06:20;;;;;;;20.95;11.45;;;4.20;53.50;;;;;;5011531;28;20049;-58
2021/01/12 05:08:55;;;;;;;21.50;11.38;;;4.20;53.30;;;;;;5002237;28;20026;-59
2021/01/12 05:11:25;;;;;;;17.50;10.73;;;4.10;53.10;;;;;;5012302;28;20088;-58
2021/01/12 05:13:55;;;;;;;18.07;11.00;;;4.10;53.10;;;;;;5011434;28;20374;-59
2021/01/12 05:16:23;;;;;;;17.52;11.70;;;4.10;53.00;;;;;;5009892;28;20048;-59
2021/01/12 05:18:50;;;;;;;15.20;10.48;;;4.10;53.20;;;;;;5010513;28;20036;-60
2021/01/12 05:21:18;;;;;;;17.33;10.73;;;4.10;52.90;;;;;;5008935;28;20014;-59
2021/01/12 05:24:02;;;;;;;13.30;9.50;;;4.10;52.90;;;;;;5008312;28;20076;-60
2021/01/12 05:26:32;;;;;;;14.60;9.65;;;4.10;53.50;;;;;;5006035;28;20033;-57
2021/01/12 05:29:00;;;;;;;13.63;8.47;;;4.10;53.00;;;;;;5006014;28;20120;-58
2021/01/12 05:31:27;;;;;;;14.98;9.10;;;4.20;53.10;;;;;;5004011;28;20029;-60
2021/01/12 05:33:53;;;;;;;15.77;9.38;;;4.20;53.10;;;;;;5012580;28;20030;-59
2021/01/12 05:36:20;;;;;;;15.70;8.77;;;4.20;53.10;;;;;;5012628;28;20030;-60
2021/01/12 05:38:49;;;;;;;12.93;8.10;;;4.20;53.20;;;;;;5012744;28;20034;-57
2021/01/12 05:41:15;;;;;;;14.07;7.95;;;4.20;53.40;;;;;;5016561;28;20072;-59
2021/01/12 05:43:45;;;;;;;14.85;8.63;;;4.20;53.30;;;;;;5033095;28;20037;-58
2021/01/12 05:46:14;;;;;;;15.10;9.27;;;4.20;53.40;;;;;;5029628;28;20050;-58
2021/01/12 05:48:41;;;;;;;17.63;10.25;;;4.30;53.70;;;;;;5019331;28;20528;-59
2021/01/12 05:51:09;;;;;;;15.25;10.27;;;4.20;53.60;;;;;;5031241;28;20470;-57
2021/01/12 05:53:46;;;;;;;21.90;10.80;;;4.20;53.80;;;;;;5026276;28;20084;-58
2021/01/12 05:56:24;;;;;;;16.58;10.25;;;4.20;53.80;;;;;;5024109;28;20052;-57
2021/01/12 05:58:56;;;;;;;14.52;9.70;;;4.20;53.80;;;;;;5024042;28;20119;-57
2021/01/12 06:01:49;;;;;;;15.65;9.82;;;4.20;53.70;;;;;;5022707;28;20026;-61
2021/01/12 06:04:15;;;;;;;15.15;8.45;;;4.20;53.70;;;;;;4999092;28;20030;-58
2021/01/12 06:06:44;;;;;;;15.65;9.05;;;4.20;53.70;;;;;;5004960;28;20543;-59
2021/01/12 06:09:11;;;;;;;15.57;8.68;;;4.20;53.30;;;;;;5004944;28;20070;-59
2021/01/12 06:11:39;;;;;;;16.73;8.43;;;4.20;53.10;;;;;;5016584;28;20025;-58
2021/01/12 06:14:12;;;;;;;11.68;7.53;;;4.20;53.00;;;;;;5017820;28;20108;-56
2021/01/12 06:16:39;;;;;;;14.80;8.32;;;4.20;53.00;;;;;;5011614;28;20060;-58
2021/01/12 06:19:17;;;;;;;15.25;7.80;;;4.10;52.70;;;;;;5013872;28;20353;-58
2021/01/12 06:21:55;;;;;;;15.40;8.35;;;4.20;52.70;;;;;;5006506;28;20022;-57
2021/01/12 06:24:33;;;;;;;15.70;8.80;;;4.10;52.70;;;;;;5012540;28;20026;-59
2021/01/12 06:26:59;;;;;;;18.52;9.88;;;4.10;52.80;;;;;;5018669;28;20064;-59
2021/01/12 06:29:29;;;;;;;19.63;10.32;;;4.10;52.80;;;;;;5012300;28;20379;-59
2021/01/12 06:31:56;;;;;;;20.50;10.27;;;4.10;52.60;;;;;;5018273;28;20101;-57
2021/01/12 06:34:23;;;;;;;18.98;9.68;;;4.20;52.60;;;;;;5011179;28;20125;-59
2021/01/12 06:36:51;;;;;;;19.35;10.77;;;4.20;52.40;;;;;;5017159;28;20068;-57
2021/01/12 06:39:22;;;;;;;18.02;10.18;;;4.10;52.30;;;;;;5016754;28;20540;-58
2021/01/12 06:41:51;;;;;;;19.63;10.00;;;4.10;52.30;;;;;;5012962;28;20080;-58
2021/01/12 06:44:25;;;;;;;31.75;10.98;;;4.10;52.40;;;;;;5008912;28;20037;-59
2021/01/12 06:46:53;;;;;;;22.20;11.63;;;4.10;52.60;;;;;;5005569;28;20109;-58
2021/01/12 06:49:21;;;;;;;21.85;10.48;;;4.10;52.60;;;;;;5002805;28;20029;-60
2021/01/12 06:52:05;;;;;;;18.33;10.85;;;4.20;52.60;;;;;;5007141;28;20040;-58
2021/01/12 06:54:35;;;;;;;14.88;9.13;;;4.10;52.30;;;;;;5005913;28;20040;-59
2021/01/12 06:57:06;;;;;;;12.95;7.35;;;4.10;52.50;;;;;;5011211;28;20022;-59
2021/01/12 06:59:46;;;;;;;12.38;7.65;;;4.10;52.50;;;;;;5005440;28;20490;-59
2021/01/12 07:02:26;;;;;;;13.27;6.95;;;4.10;52.40;;;;;;5004881;28;20538;-57
2021/01/12 07:04:59;;;;;;;10.82;7.30;;;4.00;52.50;;;;;;5003035;28;20026;-59
2021/01/12 07:07:28;;;;;;;11.90;7.13;;;4.00;52.50;;;;;;5005956;28;20108;-58
2021/01/12 07:09:59;;;;;;;10.75;6.72;;;4.00;52.50;;;;;;5001188;28;20032;-59
2021/01/12 07:12:26;;;;;;;18.02;7.57;;;4.00;52.40;;;;;;5001559;28;20069;-57
2021/01/12 07:14:57;;;;;;;12.63;7.32;;;4.00;52.30;;;;;;5004827;28;20038;-58
2021/01/12 07:17:39;;;;;;;13.10;8.48;;;3.90;52.50;;;;;;4999827;28;20478;-59
2021/01/12 07:20:13;;;;;;;12.40;7.70;;;3.90;52.60;;;;;;4995984;28;20118;-59
2021/01/12 07:22:55;;;;;;;11.38;6.43;;;3.90;52.60;;;;;;4998071;28;20022;-58
2021/01/12 07:25:22;;;;;;;;;;;3.90;52.60;;;;;;4996773;28;20048;-59
2021/01/12 07:28:22;;;;;;;12.95;7.07;;;3.80;52.30;;;;;;4998414;28;20585;-58
2021/01/12 07:30:50;;;;;;;11.15;6.65;;;3.70;52.60;;;;;;5002820;28;20506;-59
2021/01/12 07:33:19;;;;;;;11.68;7.15;;;3.70;52.90;;;;;;4999474;28;20084;-59
2021/01/12 07:35:47;;;;;;;13.48;7.20;;;3.70;52.80;;;;;;5004025;28;20061;-59
2021/01/12 07:38:17;;;;;;;13.52;8.10;;;3.60;53.00;;;;;;4999685;28;20734;-60
2021/01/12 07:40:43;;;;;;;15.35;9.20;;;3.60;53.10;;;;;;5001124;28;20053;-59
2021/01/12 07:43:17;;;;;;;13.88;8.15;;;3.70;53.10;;;;;;5002655;28;20109;-59
2021/01/12 07:45:44;;;;;;;15.55;8.32;;;3.70;53.20;;;;;;5001133;28;20023;-60
2021/01/12 07:48:10;;;;;;;12.15;8.57;;;3.80;53.40;;;;;;4997699;28;20049;-60
2021/01/12 07:50:36;;;;;;;17.20;9.35;;;3.80;53.30;;;;;;5000037;28;20045;-60
2021/01/12 07:53:05;;;;;;;17.45;9.05;;;3.90;53.40;;;;;;5000686;28;20033;-58
2021/01/12 07:55:31;;;;;;;13.50;8.63;;;3.90;53.40;;;;;;5000569;28;20034;-59
2021/01/12 07:57:57;;;;;;;21.13;9.93;;;4.00;53.40;;;;;;5000476;28;20577;-60
2021/01/12 08:00:24;;;;;;;15.77;8.60;;;4.00;53.20;;;;;;5000728;28;20094;-60
2021/01/12 08:02:51;;;;;;;16.25;9.43;;;4.00;53.20;;;;;;4997114;28;20032;-59
2021/01/12 08:05:23;;;;;;;14.13;9.60;;;4.00;53.10;;;;;;5001927;28;20026;-59
2021/01/12 08:07:50;;;;;;;17.27;9.10;;;4.00;53.40;;;;;;4999124;28;20034;-59
2021/01/12 08:10:15;;;;;;;17.90;9.60;;;4.10;53.20;;;;;;4997531;28;20072;-59
2021/01/12 08:12:42;;;;;;;18.30;9.60;;;4.10;53.30;;;;;;4997245;28;20022;-61
2021/01/12 08:15:13;;;;;;;17.73;9.30;;;4.20;53.20;;;;;;5001016;28;21577;-58
2021/01/12 08:17:50;;;;;;;13.23;8.15;;;4.20;52.90;;;;;;4996674;28;20409;-58
2021/01/12 08:20:17;;;;;;;16.02;9.95;;;4.20;52.80;;;;;;4997222;28;20038;-57
2021/01/12 08:22:51;;;;;;;16.45;8.82;;;4.20;52.60;;;;;;5001690;28;20029;-60
2021/01/12 08:25:17;;;;;;;10.13;6.93;;;4.10;52.30;;;;;;5012758;28;20712;-60
2021/01/12 08:27:48;;;;;;;11.38;6.47;;;4.00;52.00;;;;;;5002396;28;20050;-59
2021/01/12 08:30:17;;;;;;;11.05;6.45;;;3.90;51.90;;;;;;5003392;28;20123;-60
2021/01/12 08:32:49;;;;;;;9.70;6.22;;;3.80;52.60;;;;;;4998994;28;20030;-60
2021/01/12 08:35:17;;;;;;;9.70;6.18;;;3.80;52.20;;;;;;4991842;28;20029;-60
2021/01/12 08:37:45;;;;;;;13.07;7.40;;;3.70;52.20;;;;;;4999522;28;20161;-60
2021/01/12 08:40:13;;;;;;;12.15;8.05;;;3.70;51.80;;;;;;4997203;28;20037;-60
2021/01/12 08:42:40;;;;;;;12.48;8.15;;;3.60;52.40;;;;;;4995675;28;20075;-59
2021/01/12 08:45:17;;;;;;;13.88;7.80;;;3.70;52.30;;;;;;4998660;28;20375;-60
2021/01/12 08:47:47;;;;;;;14.35;7.38;;;3.80;52.20;;;;;;4999171;28;20117;-59
2021/01/12 08:50:13;;;;;;;8.70;6.00;;;3.80;52.00;;;;;;4990601;28;20122;-61
2021/01/12 08:52:44;;;;;;;9.10;5.47;;;3.80;51.90;;;;;;5002649;28;20030;-61
2021/01/12 08:55:21;;;;;;;8.75;6.28;;;3.80;51.80;;;;;;5001010;28;20426;-60
2021/01/12 08:57:58;;;;;;;8.38;5.65;;;3.70;51.50;;;;;;4985746;28;20033;-59
2021/01/12 09:00:32;;;;;;;8.63;5.97;;;3.50;51.90;;;;;;4993511;28;20030;-60
2021/01/12 09:02:59;;;;;;;11.27;6.80;;;3.40;52.00;;;;;;4995114;28;20041;-60
2021/01/12 09:05:26;;;;;;;8.43;6.05;;;3.20;52.10;;;;;;4994239;28;20115;-59
2021/01/12 09:08:10;;;;;;;9.82;6.35;;;3.20;52.50;;;;;;5003284;28;20049;-59
2021/01/12 09:10:39;;;;;;;9.35;5.90;;;3.10;52.50;;;;;;5000172;28;20025;-58
2021/01/12 09:13:05;;;;;;;10.23;6.22;;;3.20;52.70;;;;;;4991770;28;20038;-60
2021/01/12 09:15:33;;;;;;;12.77;7.25;;;3.20;52.60;;;;;;5000377;28;20030;-58
2021/01/12 09:18:20;;;;;;;12.65;7.75;;;3.30;52.70;;;;;;4988149;28;20022;-60
2021/01/12 09:21:08;;;;;;;12.65;8.50;;;3.30;52.50;;;;;;5000142;28;20041;-60
2021/01/12 09:23:36;;;;;;;10.55;6.68;;;3.40;52.40;;;;;;4996508;28;20034;-59
2021/01/12 09:26:03;;;;;;;9.40;5.75;;;3.40;52.40;;;;;;5001397;28;20018;-60
2021/01/12 09:28:36;;;;;;;10.38;6.85;;;3.40;52.40;;;;;;4994205;28;20128;-60
2021/01/12 09:31:21;;;;;;;10.52;6.10;;;3.40;52.60;;;;;;5001902;28;20057;-58
2021/01/12 09:33:54;;;;;;;12.02;6.82;;;3.40;52.50;;;;;;5002400;28;20034;-60
2021/01/12 09:36:21;;;;;;;10.02;6.50;;;3.40;52.40;;;;;;5016922;28;20030;-59
2021/01/12 09:38:52;;;;;;;10.55;7.68;;;3.30;52.60;;;;;;4995092;28;20026;-58
2021/01/12 09:41:23;;;;;;;14.20;8.07;;;3.20;52.70;;;;;;4999289;28;20071;-59
2021/01/12 09:43:50;;;;;;;11.07;6.90;;;3.20;53.00;;;;;;4993145;28;20493;-59
2021/01/12 09:46:17;;;;;;;11.15;7.45;;;3.20;53.00;;;;;;4997613;28;20434;-60
2021/01/12 09:48:43;;;;;;;12.63;7.90;;;3.20;53.10;;;;;;4991973;28;20037;-60
2021/01/12 09:51:13;;;;;;;11.38;7.50;;;3.20;53.20;;;;;;4995869;28;20034;-59
2021/01/12 09:53:43;;;;;;;10.00;6.70;;;3.20;53.20;;;;;;4996073;28;20029;-59
2021/01/12 09:56:15;;;;;;;10.10;6.55;;;3.10;53.20;;;;;;4992156;28;20430;-59
2021/01/12 09:58:41;;;;;;;10.02;6.47;;;3.00;53.30;;;;;;4992941;28;20029;-59
2021/01/12 10:01:07;;;;;;;9.27;6.20;;;2.80;53.50;;;;;;4996056;28;20030;-59
2021/01/12 10:03:33;;;;;;;9.07;6.32;;;2.80;53.80;;;;;;4994921;28;20034;-58
2021/01/12 10:05:59;;;;;;;13.00;7.70;;;2.90;54.20;;;;;;4990015;28;20022;-59
2021/01/12 10:08:28;;;;;;;8.25;5.88;;;2.90;54.10;;;;;;4996314;28;20092;-59
2021/01/12 10:10:54;;;;;;;8.63;5.70;;;3.00;54.10;;;;;;4990714;28;20498;-58
2021/01/12 10:13:20;;;;;;;7.65;4.93;;;3.20;53.90;;;;;;4997777;28;20030;-58
2021/01/12 10:15:46;;;;;;;13.82;6.65;;;3.30;53.60;;;;;;4997543;28;20887;-58
2021/01/12 10:18:12;;;;;;;10.10;6.25;;;3.40;53.40;;;;;;4991578;28;20041;-59
2021/01/12 10:20:38;;;;;;;12.68;7.70;;;3.50;53.10;;;;;;4992468;28;20022;-60
2021/01/12 10:23:04;;;;;;;11.80;7.32;;;3.60;53.10;;;;;;4994224;28;20038;-58
2021/01/12 10:25:30;;;;;;;17.50;8.15;;;3.70;52.80;;;;;;4995591;28;20035;-58
2021/01/12 10:27:56;;;;;;;13.60;8.23;;;3.70;52.70;;;;;;4993340;28;20060;-59
2021/01/12 10:30:22;;;;;;;10.70;7.18;;;3.70;52.50;;;;;;4995719;28;20025;-59
2021/01/12 10:32:48;;;;;;;15.48;8.98;;;3.60;52.60;;;;;;4999497;28;20045;-57
2021/01/12 10:35:15;;;;;;;13.95;8.20;;;3.50;52.60;;;;;;4992835;28;20034;-59
2021/01/12 10:37:43;;;;;;;11.90;7.60;;;3.40;52.70;;;;;;4998560;28;20462;-59
2021/01/12 10:40:10;;;;;;;12.13;7.35;;;3.40;53.10;;;;;;4996426;28;20060;-58
2021/01/12 10:42:45;;;;;;;9.93;6.63;;;3.30;53.40;;;;;;4991669;28;20022;-58
2021/01/12 10:45:12;;;;;;;10.25;6.78;;;3.20;53.50;;;;;;4995120;28;20029;-58
2021/01/12 10:47:44;;;;;;;7.13;4.95;;;3.10;53.50;;;;;;5000643;28;20042;-57
2021/01/12 10:50:20;;;;;;;8.52;5.45;;;3.10;53.70;;;;;;4996011;28;20044;-59
2021/01/12 10:52:46;;;;;;;7.47;5.32;;;3.00;53.90;;;;;;4993423;28;20513;-59
2021/01/12 10:55:12;;;;;;;8.25;4.38;;;2.90;53.80;;;;;;4995212;28;20023;-59
2021/01/12 10:57:42;;;;;;;6.25;4.45;;;2.90;53.80;;;;;;4999670;28;20445;-60
2021/01/12 11:00:11;;;;;;;5.93;4.10;;;2.80;53.60;;;;;;4991802;28;20042;-60
2021/01/12 11:02:37;;;;;;;4.43;3.67;;;2.70;53.90;;;;;;4994995;28;20379;-57
2021/01/12 11:05:03;;;;;;;4.80;3.72;;;2.70;54.00;;;;;;4992549;28;20106;-59
2021/01/12 11:07:33;;;;;;;5.97;3.45;;;2.70;54.00;;;;;;4994513;28;20022;-60
2021/01/12 11:09:59;;;;;;;4.15;3.20;;;2.70;53.80;;;;;;4996500;28;20030;-59
2021/01/12 11:12:27;;;;;;;4.00;3.22;;;2.70;54.00;;;;;;4993484;28;20126;-58
2021/01/12 11:14:56;;;;;;;3.78;3.05;;;2.60;54.00;;;;;;4993672;28;20069;-57
2021/01/12 11:17:22;;;;;;;4.53;3.38;;;2.60;53.90;;;;;;4992208;28;20399;-59
2021/01/12 11:19:48;;;;;;;4.40;3.05;;;2.60;54.30;;;;;;4997780;28;20030;-59
2021/01/12 11:22:14;;;;;;;5.00;3.53;;;2.60;54.50;;;;;;4990691;28;20030;-59
2021/01/12 11:24:40;;;;;;;4.53;3.40;;;2.50;54.60;;;;;;4994398;28;20057;-59
2021/01/12 11:27:07;;;;;;;4.55;3.33;;;2.60;54.50;;;;;;4994740;28;20030;-58
2021/01/12 11:29:33;;;;;;;4.25;3.47;;;2.60;54.60;;;;;;5001211;28;20050;-59
2021/01/12 11:32:01;;;;;;;3.53;3.22;;;2.60;54.60;;;;;;4995329;28;20049;-59
2021/01/12 11:34:27;;;;;;;4.22;3.00;;;2.60;54.60;;;;;;4997146;28;20045;-58
2021/01/12 11:36:54;;;;;;;4.22;3.22;;;2.60;54.80;;;;;;4996710;28;20064;-58
2021/01/12 11:39:20;;;;;;;6.13;3.50;;;2.60;54.90;;;;;;4996016;28;20111;-58
2021/01/12 11:41:55;;;;;;;4.38;3.25;;;2.50;55.10;;;;;;5000442;28;20026;-59
2021/01/12 11:44:24;;;;;;;5.07;3.70;;;2.60;55.40;;;;;;4995521;28;20022;-59
2021/01/12 11:46:50;;;;;;;7.15;3.30;;;2.50;55.60;;;;;;4999847;28;20033;-57
2021/01/12 11:49:16;;;;;;;3.85;3.05;;;2.50;55.80;;;;;;4998908;28;20030;-58
2021/01/12 11:51:45;;;;;;;3.33;2.75;;;2.40;56.00;;;;;;5005372;28;20045;-58
2021/01/12 11:54:11;;;;;;;4.53;3.05;;;2.40;56.20;;;;;;5000806;28;20474;-58
2021/01/12 11:56:38;;;;;;;3.40;2.95;;;2.40;56.50;;;;;;4999153;28;20025;-58
2021/01/12 11:59:05;;;;;;;6.30;3.45;;;2.40;56.30;;;;;;4998732;28;20694;-58
2021/01/12 12:01:50;;;;;;;4.38;3.38;;;2.30;56.60;;;;;;4994081;28;20865;-59
2021/01/12 12:04:16;;;;;;;3.42;2.97;;;2.30;56.70;;;;;;4998262;28;20113;-58
2021/01/12 12:06:54;;;;;;;4.43;3.25;;;2.20;56.80;;;;;;4994336;28;20026;-59
2021/01/12 12:09:22;;;;;;;4.18;3.25;;;2.20;56.90;;;;;;4998490;28;20030;-58
2021/01/12 12:11:48;;;;;;;6.10;3.38;;;2.10;57.00;;;;;;5008573;28;20101;-59
2021/01/12 12:14:15;;;;;;;8.02;3.80;;;2.20;57.20;;;;;;4991001;28;20030;-58
2021/01/12 12:16:43;;;;;;;4.55;3.63;;;2.20;57.30;;;;;;4988116;28;20033;-59
2021/01/12 12:19:10;;;;;;;5.82;3.72;;;2.10;57.50;;;;;;4993260;28;20084;-59
2021/01/12 12:21:36;;;;;;;6.65;4.18;;;2.10;57.60;;;;;;5002007;28;20482;-59
2021/01/12 12:24:02;;;;;;;5.00;3.03;;;2.10;57.60;;;;;;4994726;28;20034;-59
2021/01/12 12:26:28;;;;;;;3.97;3.00;;;2.10;57.70;;;;;;4994263;28;20053;-59
2021/01/12 12:28:54;;;;;;;5.00;3.40;;;2.10;57.70;;;;;;4992007;28;20502;-58
2021/01/12 12:31:20;;;;;;;7.15;3.45;;;2.10;57.60;;;;;;4990735;28;20069;-58
2021/01/12 12:33:46;;;;;;;3.30;3.00;;;2.20;57.50;;;;;;4995984;28;20050;-59
2021/01/12 12:36:14;;;;;;;4.75;3.22;;;2.10;57.30;;;;;;4996346;28;20410;-57
2021/01/12 12:38:41;;;;;;;3.53;2.90;;;2.10;57.30;;;;;;4998928;28;20030;-59
2021/01/12 12:41:11;;;;;;;4.10;3.42;;;2.10;57.60;;;;;;4988995;28;20081;-59
2021/01/12 12:43:37;;;;;;;5.45;3.20;;;2.10;57.70;;;;;;4996813;28;20152;-56
2021/01/12 12:46:04;;;;;;;3.70;3.35;;;2.00;57.70;;;;;;4989240;28;20030;-59
2021/01/12 12:48:31;;;;;;;4.00;3.53;;;2.10;57.90;;;;;;4989768;28;20041;-58
2021/01/12 12:50:59;;;;;;;3.50;3.03;;;2.10;58.20;;;;;;4991776;28;20310;-59
2021/01/12 12:53:25;;;;;;;5.47;3.30;;;2.10;58.00;;;;;;4990421;28;20049;-59
2021/01/12 12:55:51;;;;;;;3.95;3.10;;;2.10;58.10;;;;;;4999323;28;20038;-59